createdAt,value
2017-08-03T00:01:04.801Z,20.50
2017-08-03T00:03:32.954Z,20.50
2017-08-03T00:06:01.111Z,20.40
2017-08-03T00:08:29.282Z,20.50
2017-08-03T00:10:57.426Z,20.40
2017-08-03T00:13:25.567Z,20.50
2017-08-03T00:15:53.771Z,20.60
2017-08-03T00:18:21.937Z,20.50
2017-08-03T00:20:50.625Z,20.50
2017-08-03T00:23:18.803Z,20.50
2017-08-03T00:25:46.975Z,20.40
2017-08-03T00:28:15.122Z,20.10
2017-08-03T00:30:43.944Z,20.20
2017-08-03T00:33:12.086Z,20.20
2017-08-03T00:35:40.233Z,20.00
2017-08-03T00:38:08.419Z,20.10
2017-08-03T00:40:36.585Z,20.10
2017-08-03T00:43:04.730Z,20.20
2017-08-03T00:45:33.702Z,20.10
2017-08-03T00:48:02.641Z,20.00
2017-08-03T00:50:30.794Z,20.00
2017-08-03T00:52:59.749Z,20.10
2017-08-03T00:55:27.917Z,20.00
2017-08-03T00:57:56.083Z,20.00
2017-08-03T01:00:24.290Z,20.00
2017-08-03T01:02:52.438Z,20.10
2017-08-03T01:05:20.585Z,20.00
2017-08-03T01:07:48.858Z,20.00
2017-08-03T01:10:17.006Z,19.90
2017-08-03T01:12:45.914Z,19.80
2017-08-03T01:15:14.110Z,19.80
2017-08-03T01:17:42.285Z,19.80
2017-08-03T01:20:10.442Z,19.70
2017-08-03T01:22:38.641Z,19.70
2017-08-03T01:25:06.789Z,19.60
2017-08-03T01:27:34.956Z,19.50
2017-08-03T01:30:03.164Z,19.50
2017-08-03T01:32:31.349Z,19.40
2017-08-03T01:34:59.512Z,19.30
2017-08-03T01:37:27.710Z,19.20
2017-08-03T01:39:55.869Z,19.20
2017-08-03T01:42:24.018Z,19.20
2017-08-03T01:44:52.216Z,19.10
2017-08-03T01:47:20.361Z,19.20
2017-08-03T01:49:48.514Z,19.10
2017-08-03T01:52:17.874Z,18.90
2017-08-03T01:54:46.025Z,18.80
2017-08-03T01:57:14.175Z,18.80
2017-08-03T01:59:43.113Z,18.80
2017-08-03T02:02:11.266Z,18.80
2017-08-03T02:04:39.441Z,18.90
2017-08-03T02:07:07.638Z,18.90
2017-08-03T02:09:35.802Z,18.90
2017-08-03T02:12:03.964Z,19.00
2017-08-03T02:14:32.162Z,19.00
2017-08-03T02:17:00.312Z,19.00
2017-08-03T02:19:28.458Z,19.00
2017-08-03T02:21:57.109Z,19.00
2017-08-03T02:24:25.260Z,19.00
2017-08-03T02:26:53.438Z,19.00
2017-08-03T02:29:21.618Z,19.00
2017-08-03T02:31:49.790Z,18.90
2017-08-03T02:34:17.939Z,18.90
2017-08-03T02:36:46.121Z,18.90
2017-08-03T02:39:14.293Z,18.80
2017-08-03T02:41:42.447Z,18.70
2017-08-03T02:44:10.627Z,18.70
2017-08-03T02:46:38.776Z,18.70
2017-08-03T02:49:08.472Z,18.70
2017-08-03T02:51:36.654Z,18.70
2017-08-03T02:54:04.806Z,18.70
2017-08-03T02:56:32.984Z,18.70
2017-08-03T02:59:01.520Z,18.80
2017-08-03T03:01:29.690Z,18.70
2017-08-03T03:03:57.857Z,18.70
2017-08-03T03:06:26.926Z,18.70
2017-08-03T03:08:55.074Z,18.70
2017-08-03T03:11:23.240Z,18.70
2017-08-03T03:13:51.443Z,18.70
2017-08-03T03:16:19.590Z,18.80
2017-08-03T03:18:47.760Z,18.80
2017-08-03T03:21:15.937Z,18.80
2017-08-03T03:23:44.100Z,18.70
2017-08-03T03:26:12.269Z,18.70
2017-08-03T03:28:40.901Z,18.70
2017-08-03T03:31:09.075Z,18.60
2017-08-03T03:33:37.241Z,18.50
2017-08-03T03:36:05.449Z,18.50
2017-08-03T03:38:34.383Z,18.40
2017-08-03T03:41:02.534Z,18.40
2017-08-03T03:43:30.736Z,18.40
2017-08-03T03:45:58.883Z,18.40
2017-08-03T03:48:27.053Z,18.50
2017-08-03T03:50:55.490Z,18.50
2017-08-03T03:53:23.645Z,18.40
2017-08-03T03:55:51.799Z,18.30
2017-08-03T03:58:19.996Z,18.30
2017-08-03T04:00:48.154Z,18.40
2017-08-03T04:03:16.326Z,18.50
2017-08-03T04:05:44.542Z,18.50
2017-08-03T04:08:13.463Z,18.40
2017-08-03T04:10:41.643Z,18.40
2017-08-03T04:13:09.840Z,18.40
2017-08-03T04:15:38.010Z,18.50
2017-08-03T04:18:06.154Z,18.50
2017-08-03T04:20:34.339Z,18.50
2017-08-03T04:23:02.489Z,18.50
2017-08-03T04:25:31.401Z,18.40
2017-08-03T04:27:59.595Z,18.40
2017-08-03T04:30:27.762Z,18.40
2017-08-03T04:32:55.932Z,18.40
2017-08-03T04:35:24.146Z,18.40
2017-08-03T04:37:52.320Z,18.40
2017-08-03T04:40:20.475Z,18.40
2017-08-03T04:42:48.669Z,18.40
2017-08-03T04:45:16.817Z,18.50
2017-08-03T04:47:44.970Z,18.60
2017-08-03T04:50:13.151Z,18.50
2017-08-03T04:52:41.302Z,18.40
2017-08-03T04:55:10.214Z,18.50
2017-08-03T04:57:38.419Z,18.50
2017-08-03T05:00:06.578Z,18.50
2017-08-03T05:02:34.729Z,18.60
2017-08-03T05:05:02.939Z,18.60
2017-08-03T05:07:31.109Z,18.60
2017-08-03T05:09:59.286Z,18.60
2017-08-03T05:12:27.475Z,18.60
2017-08-03T05:14:55.641Z,18.60
2017-08-03T05:17:23.816Z,18.60
2017-08-03T05:19:52.022Z,18.70
2017-08-03T05:22:20.177Z,18.60
2017-08-03T05:24:48.321Z,18.70
2017-08-03T05:27:16.509Z,18.80
2017-08-03T05:29:44.680Z,18.70
2017-08-03T05:32:12.850Z,18.70
2017-08-03T05:34:41.055Z,18.70
2017-08-03T05:37:09.229Z,18.70
2017-08-03T05:39:37.405Z,18.60
2017-08-03T05:42:05.613Z,18.70
2017-08-03T05:44:34.533Z,18.90
2017-08-03T05:47:02.704Z,18.90
2017-08-03T05:49:30.878Z,18.90
2017-08-03T05:51:59.052Z,18.80
2017-08-03T05:54:27.198Z,18.80
2017-08-03T05:56:56.169Z,18.80
2017-08-03T05:59:24.336Z,18.80
2017-08-03T06:01:52.484Z,18.90
2017-08-03T06:04:20.658Z,19.00
2017-08-03T06:06:48.825Z,19.10
2017-08-03T06:09:16.980Z,19.10
2017-08-03T06:11:45.576Z,19.10
2017-08-03T06:14:13.735Z,19.00
2017-08-03T06:16:41.913Z,19.10
2017-08-03T06:19:10.097Z,19.10
2017-08-03T06:21:38.254Z,19.20
2017-08-03T06:24:06.419Z,19.20
2017-08-03T06:26:35.357Z,19.20
2017-08-03T06:29:03.521Z,19.20
2017-08-03T06:31:31.666Z,19.30
2017-08-03T06:34:00.630Z,19.40
2017-08-03T06:36:28.777Z,19.40
2017-08-03T06:38:56.949Z,19.40
2017-08-03T06:41:25.559Z,19.30
2017-08-03T06:43:53.725Z,19.30
2017-08-03T06:46:21.892Z,19.20
2017-08-03T06:48:50.073Z,19.20
2017-08-03T06:51:18.218Z,19.20
2017-08-03T06:53:47.304Z,19.20
2017-08-03T06:56:15.487Z,19.20
2017-08-03T06:58:43.641Z,19.10
2017-08-03T07:01:12.577Z,19.00
2017-08-03T07:03:40.763Z,19.00
2017-08-03T07:06:08.998Z,19.10
2017-08-03T07:08:37.909Z,19.30
2017-08-03T07:11:06.103Z,19.30
2017-08-03T07:13:34.279Z,19.30
2017-08-03T07:16:02.437Z,19.30
2017-08-03T07:18:30.640Z,19.20
2017-08-03T07:20:58.795Z,19.30
2017-08-03T07:23:26.965Z,19.30
2017-08-03T07:25:55.146Z,19.40
2017-08-03T07:28:23.300Z,19.50
2017-08-03T07:30:51.468Z,19.60
2017-08-03T07:33:19.648Z,19.60
2017-08-03T07:35:47.802Z,19.60
2017-08-03T07:38:15.968Z,19.70
2017-08-03T07:40:44.929Z,19.70
2017-08-03T07:43:13.108Z,19.70
2017-08-03T07:45:41.276Z,19.70
2017-08-03T07:48:09.475Z,19.70
2017-08-03T07:50:38.414Z,19.90
2017-08-03T07:53:06.589Z,19.90
2017-08-03T07:55:34.788Z,20.00
2017-08-03T07:58:02.966Z,20.00
2017-08-03T08:00:31.136Z,20.20
2017-08-03T08:02:59.316Z,20.40
2017-08-03T08:05:27.466Z,20.60
2017-08-03T08:07:55.626Z,20.60
2017-08-03T08:10:23.828Z,20.50
2017-08-03T08:12:52.002Z,20.70
2017-08-03T08:15:20.165Z,21.00
2017-08-03T08:17:48.357Z,21.30
2017-08-03T08:20:16.511Z,21.70
2017-08-03T08:22:44.684Z,22.20
2017-08-03T08:25:12.881Z,22.60
2017-08-03T08:27:41.023Z,22.40
2017-08-03T08:30:09.169Z,22.30
2017-08-03T08:32:38.125Z,22.40
2017-08-03T08:35:06.272Z,22.40
2017-08-03T08:37:34.440Z,22.40
2017-08-03T08:40:02.629Z,22.70
2017-08-03T08:42:30.793Z,23.00
2017-08-03T08:44:58.934Z,23.00
2017-08-03T08:47:27.887Z,23.40
2017-08-03T08:49:56.030Z,23.40
2017-08-03T08:52:24.180Z,24.60
2017-08-03T08:54:52.365Z,25.80
2017-08-03T08:57:20.537Z,27.40
2017-08-03T08:59:48.686Z,28.70
2017-08-03T09:02:17.651Z,29.10
2017-08-03T09:04:45.812Z,29.10
2017-08-03T09:07:13.976Z,29.00
2017-08-03T09:09:42.164Z,29.10
2017-08-03T09:12:10.329Z,28.60
2017-08-03T09:14:38.497Z,28.30
2017-08-03T09:17:06.685Z,28.20
2017-08-03T09:19:34.852Z,27.40
2017-08-03T09:22:03.026Z,27.10
2017-08-03T09:24:31.225Z,26.90
2017-08-03T09:26:59.380Z,27.00
2017-08-03T09:29:27.542Z,27.30
2017-08-03T09:31:55.733Z,27.80
2017-08-03T09:34:23.901Z,28.30
2017-08-03T09:36:52.072Z,29.30
2017-08-03T09:39:20.273Z,30.30
2017-08-03T09:41:48.439Z,30.20
2017-08-03T09:44:16.585Z,29.80
2017-08-03T09:46:44.783Z,29.30
2017-08-03T09:49:12.947Z,29.10
2017-08-03T09:51:41.103Z,29.00
2017-08-03T09:54:09.298Z,29.20
2017-08-03T09:56:37.461Z,29.00
2017-08-03T09:59:05.629Z,28.40
2017-08-03T10:01:33.810Z,28.10
2017-08-03T10:04:01.961Z,28.70
2017-08-03T10:06:30.129Z,29.20
2017-08-03T10:08:58.310Z,29.50
2017-08-03T10:11:26.484Z,28.60
2017-08-03T10:13:54.651Z,28.10
2017-08-03T10:16:22.827Z,27.30
2017-08-03T10:18:50.986Z,26.80
2017-08-03T10:21:19.922Z,26.30
2017-08-03T10:23:48.125Z,26.30
2017-08-03T10:26:16.270Z,26.20
2017-08-03T10:28:44.433Z,26.40
2017-08-03T10:31:12.614Z,26.20
2017-08-03T10:33:40.842Z,26.40
2017-08-03T10:36:09.010Z,26.70
2017-08-03T10:38:37.198Z,26.80
2017-08-03T10:41:06.137Z,27.20
2017-08-03T10:43:34.309Z,27.10
2017-08-03T10:46:02.496Z,27.40
2017-08-03T10:48:30.657Z,27.40
2017-08-03T10:50:58.833Z,27.60
2017-08-03T10:53:27.029Z,29.00
2017-08-03T10:55:55.200Z,30.70
2017-08-03T10:58:23.345Z,32.90
2017-08-03T11:00:51.545Z,33.60
2017-08-03T11:03:19.697Z,33.60
2017-08-03T11:05:47.863Z,33.60
2017-08-03T11:08:16.035Z,34.50
2017-08-03T11:10:44.197Z,34.70
2017-08-03T11:13:12.368Z,35.00
2017-08-03T11:15:40.562Z,33.40
2017-08-03T11:18:08.732Z,31.80
2017-08-03T11:20:36.901Z,30.90
2017-08-03T11:23:05.095Z,31.00
2017-08-03T11:25:33.265Z,31.40
2017-08-03T11:28:01.416Z,31.70
2017-08-03T11:30:29.613Z,32.30
2017-08-03T11:32:57.782Z,33.30
2017-08-03T11:35:25.934Z,34.10
2017-08-03T11:37:54.128Z,34.50
2017-08-03T11:40:23.038Z,35.30
2017-08-03T11:42:51.202Z,35.20
2017-08-03T11:45:19.408Z,33.40
2017-08-03T11:47:47.562Z,32.80
2017-08-03T11:50:15.736Z,33.20
2017-08-03T11:52:43.911Z,33.70
2017-08-03T11:55:12.076Z,33.90
2017-08-03T11:57:40.244Z,34.10
2017-08-03T12:00:08.415Z,33.80
2017-08-03T12:02:36.581Z,33.10
2017-08-03T12:05:04.752Z,32.50
2017-08-03T12:07:33.704Z,31.70
2017-08-03T12:10:01.859Z,31.60
2017-08-03T12:12:30.034Z,31.20
2017-08-03T12:14:58.207Z,31.10
2017-08-03T12:17:26.371Z,30.80
2017-08-03T12:19:54.538Z,30.80
2017-08-03T12:22:22.730Z,30.70
2017-08-03T12:24:50.886Z,30.20
2017-08-03T12:27:19.043Z,30.10
2017-08-03T12:29:48.005Z,29.70
2017-08-03T12:32:16.159Z,29.60
2017-08-03T12:34:44.330Z,29.40
2017-08-03T12:37:12.537Z,28.80
2017-08-03T12:39:40.689Z,28.30
2017-08-03T12:42:08.838Z,28.10
2017-08-03T12:44:37.021Z,27.80
2017-08-03T12:47:05.173Z,27.70
2017-08-03T12:49:33.324Z,27.50
2017-08-03T12:52:02.269Z,27.50
2017-08-03T12:54:30.419Z,27.50
2017-08-03T12:56:58.588Z,27.60
2017-08-03T12:59:26.787Z,27.50
2017-08-03T13:01:54.963Z,27.40
2017-08-03T13:04:23.115Z,27.40
2017-08-03T13:06:51.317Z,27.00
2017-08-03T13:09:19.492Z,26.60
2017-08-03T13:11:47.658Z,26.70
2017-08-03T13:14:15.858Z,26.70
2017-08-03T13:16:44.031Z,26.80
2017-08-03T13:19:12.186Z,27.10
2017-08-03T13:21:40.361Z,27.30
2017-08-03T13:24:08.510Z,27.30
2017-08-03T13:26:36.678Z,27.30
2017-08-03T13:29:04.875Z,27.50
2017-08-03T13:31:33.039Z,27.30
2017-08-03T13:34:01.207Z,27.20
2017-08-03T13:36:29.386Z,27.00
2017-08-03T13:38:57.552Z,27.10
2017-08-03T13:41:25.718Z,27.10
2017-08-03T13:43:54.684Z,27.70
2017-08-03T13:46:22.834Z,27.70
2017-08-03T13:48:50.994Z,27.90
2017-08-03T13:51:19.179Z,27.70
2017-08-03T13:53:47.341Z,27.80
2017-08-03T13:56:15.489Z,27.80
2017-08-03T13:58:43.689Z,27.90
2017-08-03T14:01:11.835Z,28.10
2017-08-03T14:03:39.992Z,27.70
2017-08-03T14:06:08.938Z,27.50
2017-08-03T14:08:37.094Z,27.50
2017-08-03T14:11:05.262Z,27.00
2017-08-03T14:13:33.464Z,26.60
2017-08-03T14:16:01.632Z,26.40
2017-08-03T14:18:29.794Z,26.20
2017-08-03T14:20:57.988Z,26.30
2017-08-03T14:23:26.139Z,26.30
2017-08-03T14:25:54.298Z,26.30
2017-08-03T14:28:23.245Z,25.70
2017-08-03T14:30:51.401Z,25.60
2017-08-03T14:33:19.599Z,25.50
2017-08-03T14:35:47.775Z,25.20
2017-08-03T14:38:16.700Z,24.50
2017-08-03T14:40:45.611Z,24.10
2017-08-03T14:43:13.817Z,24.10
2017-08-03T14:45:41.989Z,23.90
2017-08-03T14:48:10.135Z,23.80
2017-08-03T14:50:38.318Z,23.90
2017-08-03T14:53:06.513Z,23.90
2017-08-03T14:55:34.677Z,24.10
2017-08-03T14:58:02.864Z,24.50
2017-08-03T15:00:31.007Z,24.70
2017-08-03T15:02:59.169Z,24.80
2017-08-03T15:05:28.114Z,24.90
2017-08-03T15:07:56.296Z,24.90
2017-08-03T15:10:24.480Z,24.90
2017-08-03T15:12:52.651Z,24.90
2017-08-03T15:15:20.795Z,24.80
2017-08-03T15:17:49.711Z,24.60
2017-08-03T15:20:17.901Z,24.50
2017-08-03T15:22:46.051Z,24.60
2017-08-03T15:25:14.238Z,24.60
2017-08-03T15:27:42.422Z,24.60
2017-08-03T15:30:10.568Z,24.60
2017-08-03T15:32:39.479Z,24.60
2017-08-03T15:35:07.655Z,24.60
2017-08-03T15:37:35.810Z,24.70
2017-08-03T15:40:04.718Z,24.90
2017-08-03T15:42:32.889Z,24.90
2017-08-03T15:45:01.050Z,25.00
2017-08-03T15:47:29.969Z,25.20
2017-08-03T15:49:58.164Z,25.20
2017-08-03T15:52:26.310Z,25.10
2017-08-03T15:54:54.474Z,24.90
2017-08-03T15:57:22.649Z,24.70
2017-08-03T15:59:50.791Z,24.70
2017-08-03T16:02:18.952Z,24.70
2017-08-03T16:04:47.139Z,24.70
2017-08-03T16:07:15.286Z,24.70
2017-08-03T16:09:43.437Z,24.70
2017-08-03T16:12:11.647Z,24.80
2017-08-03T16:14:39.798Z,24.80
2017-08-03T16:17:07.945Z,24.70
2017-08-03T16:19:36.123Z,24.60
2017-08-03T16:22:04.286Z,24.60
2017-08-03T16:24:33.202Z,24.50
2017-08-03T16:27:01.394Z,24.50
2017-08-03T16:29:29.564Z,24.50
2017-08-03T16:31:57.731Z,24.40
2017-08-03T16:34:25.915Z,24.30
2017-08-03T16:36:54.080Z,24.20
2017-08-03T16:39:22.246Z,24.20
2017-08-03T16:41:50.417Z,24.20
2017-08-03T16:44:18.586Z,24.20
2017-08-03T16:46:46.730Z,24.10
2017-08-03T16:49:14.909Z,24.10
2017-08-03T16:51:43.842Z,24.20
2017-08-03T16:54:12.010Z,24.20
2017-08-03T16:56:40.945Z,24.20
2017-08-03T16:59:09.112Z,24.30
2017-08-03T17:01:37.258Z,24.40
2017-08-03T17:04:05.465Z,24.40
2017-08-03T17:06:33.612Z,24.40
2017-08-03T17:09:01.766Z,24.40
2017-08-03T17:11:29.981Z,24.30
2017-08-03T17:13:58.145Z,24.20
2017-08-03T17:16:26.312Z,24.00
2017-08-03T17:18:54.504Z,24.00
2017-08-03T17:21:22.646Z,23.90
2017-08-03T17:23:50.786Z,23.80
2017-08-03T17:26:19.722Z,23.80
2017-08-03T17:28:47.874Z,23.70
2017-08-03T17:31:16.042Z,23.90
2017-08-03T17:33:44.996Z,23.70
2017-08-03T17:36:13.147Z,23.70
2017-08-03T17:38:41.294Z,23.70
2017-08-03T17:41:09.471Z,23.70
2017-08-03T17:43:37.618Z,23.60
2017-08-03T17:46:06.537Z,23.70
2017-08-03T17:48:34.728Z,23.60
2017-08-03T17:51:02.881Z,23.60
2017-08-03T17:53:31.049Z,23.50
2017-08-03T17:55:59.223Z,23.50
2017-08-03T17:58:28.153Z,23.40
2017-08-03T18:00:56.321Z,23.40
2017-08-03T18:03:24.515Z,23.30
2017-08-03T18:05:52.662Z,23.40
2017-08-03T18:08:20.833Z,23.40
2017-08-03T18:10:49.005Z,23.40
2017-08-03T18:13:17.176Z,23.20
2017-08-03T18:15:45.342Z,23.20
2017-08-03T18:18:13.534Z,23.00
2017-08-03T18:20:41.682Z,23.00
2017-08-03T18:23:10.599Z,23.10
2017-08-03T18:25:38.789Z,23.10
2017-08-03T18:28:06.939Z,23.20
2017-08-03T18:30:35.092Z,23.10
2017-08-03T18:33:04.038Z,23.00
2017-08-03T18:35:32.205Z,23.00
2017-08-03T18:38:00.356Z,23.00
2017-08-03T18:40:28.541Z,23.00
2017-08-03T18:42:56.683Z,22.90
2017-08-03T18:45:25.596Z,22.70
2017-08-03T18:47:53.771Z,22.70
2017-08-03T18:50:21.915Z,22.60
2017-08-03T18:52:50.850Z,22.60
2017-08-03T18:55:19.026Z,22.60
2017-08-03T18:57:47.198Z,22.50
2017-08-03T19:00:15.345Z,22.40
2017-08-03T19:02:44.289Z,22.30
2017-08-03T19:05:12.452Z,22.30
2017-08-03T19:07:40.602Z,22.30
2017-08-03T19:10:08.777Z,22.30
2017-08-03T19:12:36.924Z,22.40
2017-08-03T19:15:05.837Z,22.40
2017-08-03T19:17:34.029Z,22.40
2017-08-03T19:20:02.183Z,22.30
2017-08-03T19:22:30.779Z,22.30
2017-08-03T19:24:58.952Z,22.20
2017-08-03T19:27:27.098Z,22.20
2017-08-03T19:29:56.024Z,22.40
2017-08-03T19:32:24.214Z,22.40
2017-08-03T19:34:52.389Z,22.50
2017-08-03T19:37:20.558Z,22.50
2017-08-03T19:39:48.727Z,22.40
2017-08-03T19:42:16.893Z,22.30
2017-08-03T19:44:45.039Z,22.30
2017-08-03T19:47:14.002Z,22.30
2017-08-03T19:49:42.166Z,22.30
2017-08-03T19:52:10.312Z,22.20
2017-08-03T19:54:38.482Z,22.20
2017-08-03T19:57:06.639Z,22.30
2017-08-03T19:59:34.805Z,22.20
2017-08-03T20:02:03.749Z,22.30
2017-08-03T20:04:31.912Z,22.30
2017-08-03T20:07:26.747Z,22.30
2017-08-03T20:10:00.806Z,22.30
2017-08-03T20:12:29.005Z,22.30
2017-08-03T20:14:57.173Z,22.30
2017-08-03T20:17:25.337Z,22.20
2017-08-03T20:19:53.528Z,22.10
2017-08-03T20:22:21.696Z,22.10
2017-08-03T20:24:49.877Z,22.10
2017-08-03T20:27:18.072Z,22.10
2017-08-03T20:29:46.224Z,22.00
2017-08-03T20:32:14.374Z,21.90
2017-08-03T20:37:15.937Z,21.90
2017-08-03T20:39:44.138Z,21.70
2017-08-03T20:42:12.277Z,21.70
2017-08-03T20:44:41.191Z,21.80
2017-08-03T20:47:09.380Z,21.70
2017-08-03T20:49:37.527Z,21.80
2017-08-03T20:52:05.694Z,21.80
2017-08-03T20:54:34.653Z,21.70
2017-08-03T20:57:02.820Z,21.60
2017-08-03T20:59:30.966Z,21.70
2017-08-03T21:01:59.164Z,21.80
2017-08-03T21:04:27.329Z,21.80
2017-08-03T21:06:55.497Z,21.70
2017-08-03T21:09:23.699Z,21.70
2017-08-03T21:11:51.864Z,21.60
2017-08-03T21:14:20.029Z,21.60
2017-08-03T21:16:48.221Z,21.70
2017-08-03T21:19:16.362Z,21.70
2017-08-03T21:21:44.511Z,21.80
2017-08-03T21:24:13.506Z,21.80
2017-08-03T21:26:41.677Z,21.70
2017-08-03T21:29:09.826Z,21.70
2017-08-03T21:31:37.995Z,21.70
2017-08-03T21:34:06.161Z,21.60
2017-08-03T21:36:34.313Z,21.60
2017-08-03T21:39:02.485Z,21.50
2017-08-03T21:41:30.659Z,21.50
2017-08-03T21:43:58.825Z,21.60
2017-08-03T21:46:27.025Z,21.60
2017-08-03T21:48:55.174Z,21.70
2017-08-03T21:51:23.323Z,21.70
2017-08-03T21:53:52.277Z,21.80
2017-08-03T21:56:20.423Z,21.80
2017-08-03T21:58:48.593Z,21.70
2017-08-03T22:01:16.768Z,21.60
2017-08-03T22:03:44.911Z,21.60
2017-08-03T22:06:13.821Z,21.30
2017-08-03T22:08:41.990Z,21.30
2017-08-03T22:11:10.153Z,21.30
2017-08-03T22:13:39.069Z,21.30
2017-08-03T22:16:07.269Z,21.20
2017-08-03T22:18:35.440Z,21.30
2017-08-03T22:21:03.609Z,21.20
2017-08-03T22:23:32.194Z,21.10
2017-08-03T22:26:00.341Z,21.10
2017-08-03T22:28:28.481Z,21.20
2017-08-03T22:30:56.658Z,21.20
2017-08-03T22:33:25.571Z,21.00
2017-08-03T22:35:53.737Z,21.00
2017-08-03T22:38:21.906Z,21.10
2017-08-03T22:40:50.847Z,21.10
2017-08-03T22:43:19.008Z,21.10
2017-08-03T22:45:47.209Z,21.10
2017-08-03T22:48:15.354Z,21.20
2017-08-03T22:50:43.494Z,21.20
2017-08-03T22:53:12.746Z,21.30
2017-08-03T22:55:40.890Z,21.30
2017-08-03T22:58:09.052Z,21.20
2017-08-03T23:00:38.021Z,21.10
2017-08-03T23:03:06.229Z,21.10
2017-08-03T23:05:34.383Z,21.00
2017-08-03T23:08:03.339Z,20.70
2017-08-03T23:10:31.481Z,20.70
2017-08-03T23:12:59.643Z,20.70
2017-08-03T23:15:27.815Z,20.80
2017-08-03T23:17:56.741Z,20.70
2017-08-03T23:20:24.895Z,20.70
2017-08-03T23:22:53.091Z,20.60
2017-08-03T23:25:21.242Z,20.50
2017-08-03T23:27:49.410Z,20.50
2017-08-03T23:30:17.614Z,20.50
2017-08-03T23:32:46.482Z,20.40
2017-08-03T23:35:14.625Z,20.30
2017-08-03T23:37:42.820Z,20.30
2017-08-03T23:40:10.988Z,20.30
2017-08-03T23:42:39.922Z,20.40
2017-08-03T23:45:08.116Z,20.30
2017-08-03T23:47:36.278Z,20.30
2017-08-03T23:50:04.448Z,20.20
2017-08-03T23:52:32.626Z,20.10
2017-08-03T23:55:00.770Z,20.10
2017-08-03T23:57:28.935Z,20.10
2017-08-03T23:59:57.124Z,20.00
